createdAt,value
2018-10-01T00:02:18.279Z,86.08
2018-10-01T00:05:22.821Z,86.10
2018-10-01T00:08:27.438Z,87.01
2018-10-01T00:11:31.892Z,89.52
2018-10-01T00:14:35.868Z,88.94
2018-10-01T00:17:39.724Z,90.85
2018-10-01T00:20:49.307Z,90.87
2018-10-01T00:23:53.194Z,89.68
2018-10-01T00:26:57.237Z,91.85
2018-10-01T00:30:01.242Z,89.98
2018-10-01T00:33:05.177Z,90.20
2018-10-01T00:36:09.140Z,88.87
2018-10-01T00:39:13.034Z,89.38
2018-10-01T00:42:17.534Z,89.01
2018-10-01T00:45:21.549Z,89.53
2018-10-01T00:48:27.027Z,88.26
2018-10-01T00:51:31.060Z,89.72
2018-10-01T00:54:35.101Z,89.80
2018-10-01T00:57:39.384Z,89.65
2018-10-01T01:00:43.341Z,90.00
2018-10-01T01:03:48.262Z,88.62
2018-10-01T01:06:52.405Z,87.94
2018-10-01T01:09:57.065Z,89.74
2018-10-01T01:13:01.139Z,88.09
2018-10-01T01:16:05.126Z,88.23
2018-10-01T01:19:09.045Z,90.13
2018-10-01T01:22:13.167Z,92.50
2018-10-01T01:25:18.623Z,92.41
2018-10-01T01:28:23.303Z,91.88
2018-10-01T01:31:27.153Z,92.50
2018-10-01T01:34:32.219Z,91.94
2018-10-01T01:37:36.111Z,90.76
2018-10-01T01:40:40.053Z,88.53
2018-10-01T01:44:18.094Z,89.97
2018-10-01T01:47:22.865Z,89.73
2018-10-01T01:50:26.919Z,88.23
2018-10-01T01:53:31.866Z,87.64
2018-10-01T01:56:36.113Z,87.00
2018-10-01T01:59:40.231Z,87.35
2018-10-01T02:02:46.350Z,89.08
2018-10-01T02:05:51.231Z,89.82
2018-10-01T02:08:55.279Z,88.14
2018-10-01T02:12:00.120Z,87.00
2018-10-01T02:15:04.871Z,88.30
2018-10-01T02:18:08.660Z,88.35
2018-10-01T02:21:13.898Z,90.26
2018-10-01T02:24:17.785Z,89.48
2018-10-01T02:27:22.526Z,88.30
2018-10-01T02:30:26.563Z,87.99
2018-10-01T02:33:30.381Z,87.56
2018-10-01T02:36:34.418Z,87.69
2018-10-01T02:39:38.285Z,87.59
2018-10-01T02:43:08.355Z,91.42
2018-10-01T02:46:13.356Z,92.80
2018-10-01T02:49:19.821Z,95.09
2018-10-01T02:52:31.056Z,96.41
2018-10-01T02:55:35.222Z,97.77
2018-10-01T02:58:39.209Z,96.32
2018-10-01T03:01:44.231Z,94.33
2018-10-01T03:04:49.119Z,94.35
2018-10-01T03:07:53.199Z,93.83
2018-10-01T03:11:00.082Z,92.81
2018-10-01T03:14:04.034Z,93.86
2018-10-01T03:17:08.038Z,98.01
2018-10-01T03:20:11.970Z,99.08
2018-10-01T03:25:58.540Z,99.07
2018-10-01T03:29:21.137Z,97.95
2018-10-01T03:32:54.531Z,96.20
2018-10-01T03:36:18.212Z,95.46
2018-10-01T03:39:41.075Z,92.43
2018-10-01T03:43:03.838Z,91.74
2018-10-01T03:46:26.797Z,91.33
2018-10-01T03:49:49.672Z,89.41
2018-10-01T03:53:12.552Z,90.82
2018-10-01T03:56:35.252Z,91.00
2018-10-01T03:59:57.911Z,89.78
2018-10-01T04:03:20.717Z,90.39
2018-10-01T04:06:43.561Z,91.57
2018-10-01T04:10:07.248Z,91.17
2018-10-01T04:13:29.999Z,93.08
2018-10-01T04:16:52.613Z,89.67
2018-10-01T04:20:15.405Z,88.38
2018-10-01T04:23:38.042Z,94.57
2018-10-01T04:27:00.739Z,94.24
2018-10-01T04:30:23.509Z,93.64
2018-10-01T04:33:46.297Z,90.12
2018-10-01T04:37:10.097Z,89.47
2018-10-01T04:41:35.909Z,89.99
2018-10-01T04:44:58.448Z,89.22
2018-10-01T04:48:20.888Z,91.29
2018-10-01T04:51:43.632Z,95.92
2018-10-01T04:55:06.466Z,94.04
2018-10-01T04:58:29.406Z,94.50
2018-10-01T05:01:51.875Z,94.95
2018-10-01T05:05:14.644Z,95.18
2018-10-01T05:08:37.235Z,95.82
2018-10-01T05:12:00.271Z,96.53
2018-10-01T05:15:22.980Z,97.71
2018-10-01T05:18:45.586Z,97.96
2018-10-01T05:22:09.185Z,98.17
2018-10-01T05:25:31.915Z,100.00
2018-10-01T05:28:54.478Z,100.00
2018-10-01T05:32:17.304Z,100.00
2018-10-01T05:35:40.111Z,99.86
2018-10-01T05:39:04.575Z,100.00
2018-10-01T05:42:27.411Z,99.96
2018-10-01T05:45:50.199Z,98.56
2018-10-01T05:49:13.117Z,99.00
2018-10-01T05:52:35.811Z,96.90
2018-10-01T05:55:58.536Z,98.91
2018-10-01T05:59:21.212Z,99.72
2018-10-01T06:02:44.114Z,100.00
2018-10-01T06:06:06.865Z,99.88
2018-10-01T06:09:30.576Z,100.00
2018-10-01T06:12:53.626Z,100.00
2018-10-01T06:16:20.273Z,100.00
2018-10-01T06:19:42.735Z,100.00
2018-10-01T06:23:05.299Z,98.18
2018-10-01T06:26:32.959Z,98.35
2018-10-01T06:29:55.499Z,100.00
2018-10-01T06:33:17.939Z,99.78
2018-10-01T06:36:40.389Z,100.00
2018-10-01T06:40:03.047Z,100.00
2018-10-01T06:43:25.590Z,99.81
2018-10-01T06:46:49.775Z,100.00
2018-10-01T06:50:12.741Z,100.00
2018-10-01T06:53:36.078Z,100.00
2018-10-01T06:56:58.758Z,100.00
2018-10-01T07:00:21.167Z,100.00
2018-10-01T07:03:45.719Z,100.00
2018-10-01T07:07:08.157Z,100.00
2018-10-01T07:10:30.868Z,99.89
2018-10-01T07:13:54.403Z,99.73
2018-10-01T07:17:18.350Z,99.41
2018-10-01T07:20:42.795Z,98.50
2018-10-01T07:24:05.276Z,97.41
2018-10-01T07:27:27.732Z,96.97
2018-10-01T07:30:50.212Z,96.37
2018-10-01T07:34:12.827Z,95.60
2018-10-01T07:37:35.206Z,95.95
2018-10-01T07:40:57.712Z,94.35
2018-10-01T07:44:20.052Z,92.03
2018-10-01T07:47:42.669Z,93.04
2018-10-01T07:51:05.226Z,91.14
2018-10-01T07:54:27.722Z,91.37
2018-10-01T07:57:50.218Z,92.39
2018-10-01T08:01:12.688Z,90.00
2018-10-01T08:04:35.194Z,91.63
2018-10-01T08:07:57.730Z,90.21
2018-10-01T08:11:20.392Z,89.62
2018-10-01T08:14:42.914Z,87.72
2018-10-01T08:18:05.468Z,89.34
2018-10-01T08:21:28.365Z,88.50
2018-10-01T08:24:51.115Z,88.73
2018-10-01T08:28:13.746Z,88.28
2018-10-01T08:31:36.543Z,88.77
2018-10-01T08:34:59.318Z,88.24
2018-10-01T08:38:22.360Z,87.82
2018-10-01T08:41:44.949Z,88.49
2018-10-01T08:45:07.706Z,90.38
2018-10-01T08:48:31.894Z,90.38
2018-10-01T08:54:03.018Z,91.07
2018-10-01T08:57:26.286Z,90.25
2018-10-01T09:00:51.311Z,90.84
2018-10-01T09:04:16.475Z,89.16
2018-10-01T09:07:39.359Z,87.90
2018-10-01T09:11:03.335Z,86.56
2018-10-01T09:14:26.285Z,84.78
2018-10-01T09:17:49.282Z,83.96
2018-10-01T09:21:16.361Z,83.87
2018-10-01T09:24:39.580Z,81.76
2018-10-01T09:57:14.281Z,75.73
2018-10-01T10:00:42.069Z,74.86
2018-10-01T10:04:05.911Z,73.12
2018-10-01T10:07:28.620Z,73.26
2018-10-01T10:10:51.407Z,73.06
2018-10-01T10:14:14.542Z,73.02
2018-10-01T10:18:40.291Z,71.18
2018-10-01T10:22:03.733Z,72.91
2018-10-01T10:25:26.716Z,71.01
2018-10-01T10:28:50.005Z,69.74
2018-10-01T10:32:13.326Z,70.02
2018-10-01T10:53:32.134Z,71.18
2018-10-01T10:56:55.380Z,74.83
2018-10-01T11:00:18.612Z,75.21
2018-10-01T11:03:41.801Z,75.32
2018-10-01T11:07:05.218Z,74.88
2018-10-01T11:10:28.132Z,72.90
2018-10-01T11:13:51.396Z,69.19
2018-10-01T11:17:14.493Z,70.47
2018-10-01T11:20:38.269Z,69.24
2018-10-01T11:24:01.526Z,67.69
2018-10-01T11:27:24.784Z,68.51
2018-10-01T11:30:48.886Z,65.54
2018-10-01T11:34:12.017Z,65.33
2018-10-01T11:37:35.244Z,65.79
2018-10-01T11:40:58.311Z,66.79
2018-10-01T11:44:22.269Z,67.69
2018-10-01T11:48:51.096Z,67.91
2018-10-01T11:53:40.004Z,69.10
2018-10-01T11:57:03.353Z,70.67
2018-10-01T12:00:26.534Z,71.23
2018-10-01T12:03:49.723Z,74.16
2018-10-01T12:07:12.893Z,73.18
2018-10-01T12:10:40.760Z,72.43
2018-10-01T12:14:04.025Z,72.50
2018-10-01T12:17:27.619Z,72.05
2018-10-01T12:20:51.047Z,71.83
2018-10-01T12:24:17.407Z,70.02
2018-10-01T12:27:40.891Z,70.58
2018-10-01T12:31:04.746Z,68.49
2018-10-01T12:34:28.986Z,67.48
2018-10-01T12:37:52.008Z,65.60
2018-10-01T12:41:15.011Z,66.46
2018-10-01T12:45:41.711Z,66.09
2018-10-01T12:49:04.551Z,66.27
2018-10-01T12:52:27.784Z,65.44
2018-10-01T12:55:50.818Z,64.15
2018-10-01T12:59:13.753Z,64.21
2018-10-01T13:02:36.659Z,62.79
2018-10-01T13:05:59.553Z,63.22
2018-10-01T13:09:22.494Z,63.29
2018-10-01T13:12:45.489Z,64.18
2018-10-01T13:16:08.261Z,66.38
2018-10-01T13:19:31.128Z,66.55
2018-10-01T13:22:53.787Z,78.95
2018-10-01T13:26:16.567Z,88.31
2018-10-01T13:29:39.322Z,95.67
2018-10-01T13:33:05.316Z,100.00
2018-10-01T13:36:28.481Z,98.49
2018-10-01T13:39:50.942Z,95.76
2018-10-01T13:43:13.617Z,96.73
2018-10-01T13:46:36.370Z,98.45
2018-10-01T13:49:59.131Z,99.05
2018-10-01T13:53:21.992Z,97.18
2018-10-01T13:56:45.673Z,98.47
2018-10-01T14:00:08.124Z,98.85
2018-10-01T14:03:30.689Z,97.66
2018-10-01T14:06:53.249Z,96.89
2018-10-01T14:10:15.795Z,97.24
2018-10-01T14:13:38.470Z,100.00
2018-10-01T14:17:01.070Z,100.00
2018-10-01T14:20:23.725Z,100.00
2018-10-01T14:23:46.278Z,100.00
2018-10-01T14:27:09.284Z,100.00
2018-10-01T14:45:08.994Z,100.00
2018-10-01T14:48:31.671Z,100.00
2018-10-01T14:51:54.334Z,100.00
2018-10-01T14:55:17.059Z,100.00
2018-10-01T14:58:39.836Z,100.00
2018-10-01T15:02:02.689Z,100.00
2018-10-01T15:05:25.543Z,100.00
2018-10-01T15:08:48.368Z,97.03
2018-10-01T15:12:11.407Z,96.73
2018-10-01T15:15:35.291Z,93.43
2018-10-01T15:18:58.131Z,95.57
2018-10-01T15:22:20.833Z,96.11
2018-10-01T15:25:43.465Z,95.34
2018-10-01T15:29:06.261Z,94.89
2018-10-01T15:32:29.009Z,94.43
2018-10-01T15:35:51.551Z,93.75
2018-10-01T15:39:14.138Z,92.47
2018-10-01T15:42:36.971Z,91.89
2018-10-01T15:45:59.541Z,88.22
2018-10-01T15:49:22.525Z,88.95
2018-10-01T15:52:46.158Z,85.93
2018-10-01T15:56:08.680Z,85.15
2018-10-01T15:59:31.245Z,84.91
2018-10-01T16:02:53.959Z,83.59
2018-10-01T16:06:16.711Z,82.09
2018-10-01T16:09:39.540Z,81.31
2018-10-01T16:13:02.365Z,83.43
2018-10-01T16:16:26.169Z,82.38
2018-10-01T16:19:48.977Z,81.76
2018-10-01T16:23:11.680Z,82.97
2018-10-01T16:26:35.614Z,83.82
2018-10-01T16:29:58.435Z,86.22
2018-10-01T16:34:45.768Z,89.16
2018-10-01T16:38:08.522Z,90.48
2018-10-01T16:41:31.186Z,90.69
2018-10-01T16:44:54.151Z,91.60
2018-10-01T16:48:16.856Z,92.23
2018-10-01T16:51:39.591Z,91.83
2018-10-01T16:55:02.340Z,94.38
2018-10-01T16:58:25.225Z,94.65
2018-10-01T17:01:47.825Z,94.40
2018-10-01T17:05:10.609Z,94.02
2018-10-01T17:08:34.299Z,94.54
2018-10-01T17:11:56.983Z,92.59
2018-10-01T17:15:19.628Z,94.95
2018-10-01T17:18:42.117Z,95.84
2018-10-01T17:22:04.631Z,95.50
2018-10-01T17:25:32.564Z,93.32
2018-10-01T17:28:55.152Z,91.03
2018-10-01T17:32:17.653Z,92.47
2018-10-01T17:35:40.328Z,92.83
2018-10-01T17:39:03.281Z,91.32
2018-10-01T17:42:25.828Z,92.00
2018-10-01T17:45:48.289Z,92.60
2018-10-01T17:49:10.858Z,92.79
2018-10-01T17:52:38.994Z,92.67
2018-10-01T17:56:04.228Z,92.35
2018-10-01T17:59:27.989Z,92.49
2018-10-01T18:02:54.410Z,93.92
2018-10-01T18:09:58.149Z,94.51
2018-10-01T18:13:22.889Z,95.38
2018-10-01T18:16:49.469Z,95.35
2018-10-01T18:28:12.326Z,96.06
2018-10-01T18:31:36.173Z,95.90
2018-10-01T18:34:59.574Z,95.71
2018-10-01T18:38:24.202Z,95.42
2018-10-01T18:41:49.093Z,96.33
2018-10-01T18:45:12.856Z,98.21
2018-10-01T18:48:35.927Z,99.97
2018-10-01T18:51:58.694Z,100.00
2018-10-01T18:55:21.504Z,100.00
2018-10-01T18:58:44.237Z,100.00
2018-10-01T19:02:07.013Z,100.00
2018-10-01T19:05:29.808Z,100.00
2018-10-01T19:08:52.848Z,98.99
2018-10-01T19:12:15.950Z,99.01
2018-10-01T19:15:38.780Z,99.19
2018-10-01T19:19:01.630Z,98.45
2018-10-01T19:22:24.623Z,97.87
2018-10-01T19:25:47.523Z,98.70
2018-10-01T19:29:10.425Z,98.89
2018-10-01T19:32:33.349Z,99.79
2018-10-01T19:35:56.221Z,100.00
2018-10-01T19:39:19.003Z,100.00
2018-10-01T19:42:41.721Z,100.00
2018-10-01T19:46:04.541Z,100.00
2018-10-01T19:49:27.346Z,100.00
2018-10-01T19:53:53.317Z,100.00
2018-10-01T19:57:16.751Z,100.00
2018-10-01T20:00:39.720Z,100.00
2018-10-01T20:05:05.335Z,100.00
2018-10-01T20:08:28.044Z,100.00
2018-10-01T20:11:50.797Z,100.00
2018-10-01T20:15:13.726Z,100.00
2018-10-01T20:18:36.337Z,100.00
2018-10-01T20:21:59.344Z,100.00
2018-10-01T20:25:22.120Z,100.00
2018-10-01T20:28:45.929Z,100.00
2018-10-01T20:32:08.823Z,100.00
2018-10-01T20:35:31.502Z,100.00
2018-10-01T20:38:54.283Z,100.00
2018-10-01T20:50:13.993Z,100.00
2018-10-01T20:53:36.867Z,100.00
2018-10-01T20:57:00.059Z,100.00
2018-10-01T21:00:22.938Z,100.00
2018-10-01T21:03:46.937Z,100.00
2018-10-01T21:07:09.719Z,100.00
2018-10-01T21:10:32.837Z,100.00
2018-10-01T21:13:56.604Z,100.00
2018-10-01T21:17:19.411Z,100.00
2018-10-01T21:20:42.124Z,100.00
2018-10-01T21:24:04.776Z,100.00
2018-10-01T21:27:27.442Z,100.00
2018-10-01T21:30:50.068Z,100.00
2018-10-01T21:34:12.772Z,100.00
2018-10-01T21:45:32.330Z,100.00
2018-10-01T21:48:55.237Z,100.00
2018-10-01T21:52:18.140Z,100.00
2018-10-01T21:55:41.043Z,100.00
2018-10-01T21:59:04.036Z,100.00
2018-10-01T22:02:26.870Z,100.00
2018-10-01T22:05:49.623Z,100.00
2018-10-01T22:12:41.736Z,100.00
2018-10-01T22:16:04.711Z,100.00
2018-10-01T22:19:27.679Z,100.00
2018-10-01T22:22:50.744Z,100.00
2018-10-01T22:26:13.833Z,100.00
2018-10-01T22:29:36.873Z,100.00
2018-10-01T22:32:59.876Z,100.00
2018-10-01T22:36:22.830Z,100.00
2018-10-01T22:39:46.673Z,100.00
2018-10-01T22:43:09.658Z,100.00
2018-10-01T22:46:34.199Z,100.00
2018-10-01T22:50:01.611Z,100.00
2018-10-01T22:53:26.651Z,100.00
2018-10-01T22:56:50.327Z,100.00
2018-10-01T23:00:13.139Z,100.00
2018-10-01T23:03:38.215Z,100.00
2018-10-01T23:07:02.056Z,100.00
2018-10-01T23:10:25.861Z,100.00
2018-10-01T23:13:48.806Z,100.00
2018-10-01T23:17:12.035Z,100.00
2018-10-01T23:20:34.998Z,100.00
2018-10-01T23:23:57.857Z,100.00
2018-10-01T23:27:21.034Z,100.00
2018-10-01T23:30:44.065Z,100.00
2018-10-01T23:34:07.180Z,100.00
2018-10-01T23:37:31.271Z,100.00
2018-10-01T23:40:55.507Z,100.00
2018-10-01T23:44:18.930Z,100.00
2018-10-01T23:47:42.774Z,100.00
2018-10-01T23:51:06.591Z,100.00
2018-10-01T23:54:32.786Z,100.00
2018-10-01T23:58:03.077Z,100.00
